Shady Beach, South Dakota
Current Conditions -  °F | °C
As of 9:54 AM on Wednesday 28 Jan 2015 (Local Time) from KVVV Reporting Station
Haze Haze  
Wind Chill: 22°   Ceiling: Unl
Heat Index: 32°   Visibility: 4mi
Dew Point: 30°   Wind: 15mph
Humidity: 93%   Direction: 140°SE
Pressure: 29.78"   Gusts: NA
Location:  45.3641°N, 96.6682°W
Report Text: KVVV 281554Z AUTO 14013KT 4SM BR SCT006 00/M01 A2978 RMK AO2
Loading
Personal Weather Stations






























Interactive Weather Map New forecast layout! Learn more

10-Day Weather Forecast

Advertisements
Track Severe Weather on mobile